Aviation Digital Data Service (ADDS)

Output produced by METARs form (1309 UTC 15 November 2018)
found at http://www.aviationweather.gov/metar/data/
 
TLPC 151100Z 1512/1612 10012KT 9999 SCT027 
     PROB40 
     TEMPO 1512/1600 SHRA SCT038
       
TLPL 151100Z 1512/1612 09021KT 9999 SCT027 
     PROB40 
     TEMPO 1512/1600 SHRA SCT038